sensor_id;sensor_type;location;lat;lon;timestamp;P1;durP1;ratioP1;P2;durP2;ratioP2
69030;SDS011;56083;48.774;8.942;2023-04-15T00:01:22;14.70;;;4.50;;
69030;SDS011;56083;48.774;8.942;2023-04-15T00:03:52;11.63;;;4.80;;
69030;SDS011;56083;48.774;8.942;2023-04-15T00:06:19;12.13;;;4.00;;
69030;SDS011;56083;48.774;8.942;2023-04-15T00:08:45;13.60;;;4.78;;
69030;SDS011;56083;48.774;8.942;2023-04-15T00:11:12;16.52;;;4.70;;
69030;SDS011;56083;48.774;8.942;2023-04-15T00:13:38;12.85;;;4.97;;
69030;SDS011;56083;48.774;8.942;2023-04-15T00:16:05;10.77;;;4.15;;
69030;SDS011;56083;48.774;8.942;2023-04-15T00:18:32;13.65;;;4.68;;
69030;SDS011;56083;48.774;8.942;2023-04-15T00:20:58;10.88;;;4.13;;
69030;SDS011;56083;48.774;8.942;2023-04-15T00:23:24;16.08;;;4.28;;
69030;SDS011;56083;48.774;8.942;2023-04-15T00:25:50;12.05;;;3.97;;
69030;SDS011;56083;48.774;8.942;2023-04-15T00:28:16;14.45;;;4.70;;
69030;SDS011;56083;48.774;8.942;2023-04-15T00:30:42;14.60;;;4.60;;
69030;SDS011;56083;48.774;8.942;2023-04-15T00:33:07;13.68;;;3.92;;
69030;SDS011;56083;48.774;8.942;2023-04-15T00:35:33;11.35;;;3.92;;
69030;SDS011;56083;48.774;8.942;2023-04-15T00:38:00;10.45;;;3.85;;
69030;SDS011;56083;48.774;8.942;2023-04-15T00:40:26;12.93;;;4.15;;
69030;SDS011;56083;48.774;8.942;2023-04-15T00:42:51;13.60;;;4.38;;
69030;SDS011;56083;48.774;8.942;2023-04-15T00:45:18;12.30;;;4.07;;
69030;SDS011;56083;48.774;8.942;2023-04-15T00:47:44;11.93;;;4.18;;
69030;SDS011;56083;48.774;8.942;2023-04-15T00:50:10;10.65;;;4.13;;
69030;SDS011;56083;48.774;8.942;2023-04-15T00:52:36;14.77;;;4.60;;
69030;SDS011;56083;48.774;8.942;2023-04-15T00:55:03;12.80;;;4.47;;
69030;SDS011;56083;48.774;8.942;2023-04-15T00:57:29;10.98;;;4.38;;
69030;SDS011;56083;48.774;8.942;2023-04-15T00:59:55;11.68;;;4.40;;
69030;SDS011;56083;48.774;8.942;2023-04-15T01:02:22;13.52;;;4.60;;
69030;SDS011;56083;48.774;8.942;2023-04-15T01:04:48;11.77;;;4.13;;
69030;SDS011;56083;48.774;8.942;2023-04-15T01:07:14;9.45;;;4.05;;
69030;SDS011;56083;48.774;8.942;2023-04-15T01:09:40;11.30;;;4.40;;
69030;SDS011;56083;48.774;8.942;2023-04-15T01:12:06;13.30;;;4.47;;
69030;SDS011;56083;48.774;8.942;2023-04-15T01:14:34;14.32;;;4.70;;
69030;SDS011;56083;48.774;8.942;2023-04-15T01:17:00;13.45;;;4.35;;
69030;SDS011;56083;48.774;8.942;2023-04-15T01:19:26;12.48;;;4.60;;
69030;SDS011;56083;48.774;8.942;2023-04-15T01:21:52;16.10;;;4.68;;
69030;SDS011;56083;48.774;8.942;2023-04-15T01:24:18;15.80;;;4.47;;
69030;SDS011;56083;48.774;8.942;2023-04-15T01:26:44;12.77;;;4.25;;
69030;SDS011;56083;48.774;8.942;2023-04-15T01:29:10;11.88;;;4.57;;
69030;SDS011;56083;48.774;8.942;2023-04-15T01:31:37;13.48;;;4.05;;
69030;SDS011;56083;48.774;8.942;2023-04-15T01:34:02;17.67;;;5.03;;
69030;SDS011;56083;48.774;8.942;2023-04-15T01:36:28;17.98;;;4.32;;
69030;SDS011;56083;48.774;8.942;2023-04-15T01:38:55;14.48;;;4.70;;
69030;SDS011;56083;48.774;8.942;2023-04-15T01:41:25;15.70;;;4.07;;
69030;SDS011;56083;48.774;8.942;2023-04-15T01:43:52;13.77;;;4.88;;
69030;SDS011;56083;48.774;8.942;2023-04-15T01:46:17;12.82;;;3.92;;
69030;SDS011;56083;48.774;8.942;2023-04-15T01:48:44;12.13;;;3.92;;
69030;SDS011;56083;48.774;8.942;2023-04-15T01:51:10;15.55;;;4.30;;
69030;SDS011;56083;48.774;8.942;2023-04-15T01:53:36;13.88;;;4.45;;
69030;SDS011;56083;48.774;8.942;2023-04-15T01:56:01;10.35;;;4.10;;
69030;SDS011;56083;48.774;8.942;2023-04-15T01:58:27;13.75;;;4.63;;
69030;SDS011;56083;48.774;8.942;2023-04-15T02:00:53;11.95;;;4.47;;
69030;SDS011;56083;48.774;8.942;2023-04-15T02:03:18;13.50;;;4.35;;
69030;SDS011;56083;48.774;8.942;2023-04-15T02:05:44;12.13;;;4.10;;
69030;SDS011;56083;48.774;8.942;2023-04-15T02:08:10;16.65;;;4.45;;
69030;SDS011;56083;48.774;8.942;2023-04-15T02:10:36;14.43;;;4.50;;
69030;SDS011;56083;48.774;8.942;2023-04-15T02:13:02;14.52;;;4.32;;
69030;SDS011;56083;48.774;8.942;2023-04-15T02:15:28;11.80;;;4.05;;
69030;SDS011;56083;48.774;8.942;2023-04-15T02:17:54;12.43;;;4.40;;
69030;SDS011;56083;48.774;8.942;2023-04-15T02:20:20;10.77;;;4.45;;
69030;SDS011;56083;48.774;8.942;2023-04-15T02:22:46;11.85;;;3.80;;
69030;SDS011;56083;48.774;8.942;2023-04-15T02:25:12;9.77;;;3.63;;
69030;SDS011;56083;48.774;8.942;2023-04-15T02:27:38;9.32;;;4.15;;
69030;SDS011;56083;48.774;8.942;2023-04-15T02:30:04;13.18;;;4.38;;
69030;SDS011;56083;48.774;8.942;2023-04-15T02:32:31;9.23;;;4.10;;
69030;SDS011;56083;48.774;8.942;2023-04-15T02:35:00;12.40;;;4.47;;
69030;SDS011;56083;48.774;8.942;2023-04-15T02:37:27;16.42;;;4.43;;
69030;SDS011;56083;48.774;8.942;2023-04-15T02:39:55;9.32;;;3.85;;
69030;SDS011;56083;48.774;8.942;2023-04-15T02:42:20;13.30;;;4.68;;
69030;SDS011;56083;48.774;8.942;2023-04-15T02:44:46;13.40;;;5.20;;
69030;SDS011;56083;48.774;8.942;2023-04-15T02:47:11;13.18;;;4.32;;
69030;SDS011;56083;48.774;8.942;2023-04-15T02:49:38;13.90;;;4.35;;
69030;SDS011;56083;48.774;8.942;2023-04-15T02:52:04;13.23;;;4.65;;
69030;SDS011;56083;48.774;8.942;2023-04-15T02:54:30;11.70;;;4.55;;
69030;SDS011;56083;48.774;8.942;2023-04-15T02:56:58;19.45;;;4.72;;
69030;SDS011;56083;48.774;8.942;2023-04-15T02:59:23;14.68;;;4.40;;
69030;SDS011;56083;48.774;8.942;2023-04-15T03:01:49;15.20;;;4.43;;
69030;SDS011;56083;48.774;8.942;2023-04-15T03:04:15;10.35;;;4.22;;
69030;SDS011;56083;48.774;8.942;2023-04-15T03:06:41;17.55;;;4.65;;
69030;SDS011;56083;48.774;8.942;2023-04-15T03:09:06;11.65;;;4.60;;
69030;SDS011;56083;48.774;8.942;2023-04-15T03:11:32;17.50;;;4.88;;
69030;SDS011;56083;48.774;8.942;2023-04-15T03:13:59;14.57;;;4.63;;
69030;SDS011;56083;48.774;8.942;2023-04-15T03:16:25;10.80;;;4.50;;
69030;SDS011;56083;48.774;8.942;2023-04-15T03:18:51;15.85;;;4.38;;
69030;SDS011;56083;48.774;8.942;2023-04-15T03:21:16;15.55;;;4.32;;
69030;SDS011;56083;48.774;8.942;2023-04-15T03:23:43;14.85;;;4.35;;
69030;SDS011;56083;48.774;8.942;2023-04-15T03:26:09;9.68;;;4.10;;
69030;SDS011;56083;48.774;8.942;2023-04-15T03:28:52;11.23;;;3.88;;
69030;SDS011;56083;48.774;8.942;2023-04-15T03:31:18;11.52;;;4.80;;
69030;SDS011;56083;48.774;8.942;2023-04-15T03:33:43;7.70;;;4.40;;
69030;SDS011;56083;48.774;8.942;2023-04-15T03:36:09;15.98;;;4.35;;
69030;SDS011;56083;48.774;8.942;2023-04-15T03:38:35;9.73;;;4.07;;
69030;SDS011;56083;48.774;8.942;2023-04-15T03:41:01;17.73;;;4.72;;
69030;SDS011;56083;48.774;8.942;2023-04-15T03:43:26;16.85;;;4.63;;
69030;SDS011;56083;48.774;8.942;2023-04-15T03:45:52;14.07;;;4.65;;
69030;SDS011;56083;48.774;8.942;2023-04-15T03:48:17;12.13;;;4.43;;
69030;SDS011;56083;48.774;8.942;2023-04-15T03:50:43;9.13;;;4.20;;
69030;SDS011;56083;48.774;8.942;2023-04-15T03:53:08;11.80;;;4.75;;
69030;SDS011;56083;48.774;8.942;2023-04-15T03:55:34;9.95;;;4.40;;
69030;SDS011;56083;48.774;8.942;2023-04-15T03:58:00;10.35;;;4.25;;
69030;SDS011;56083;48.774;8.942;2023-04-15T04:00:26;9.73;;;4.15;;
69030;SDS011;56083;48.774;8.942;2023-04-15T04:02:52;19.10;;;5.10;;
69030;SDS011;56083;48.774;8.942;2023-04-15T04:05:17;13.98;;;4.45;;
69030;SDS011;56083;48.774;8.942;2023-04-15T04:07:43;12.25;;;4.20;;
69030;SDS011;56083;48.774;8.942;2023-04-15T04:10:08;11.77;;;4.15;;
69030;SDS011;56083;48.774;8.942;2023-04-15T04:12:34;10.38;;;4.40;;
69030;SDS011;56083;48.774;8.942;2023-04-15T04:15:00;11.70;;;4.63;;
69030;SDS011;56083;48.774;8.942;2023-04-15T04:17:25;12.68;;;3.95;;
69030;SDS011;56083;48.774;8.942;2023-04-15T04:19:51;14.25;;;4.47;;
69030;SDS011;56083;48.774;8.942;2023-04-15T04:22:17;10.75;;;4.15;;
69030;SDS011;56083;48.774;8.942;2023-04-15T04:24:46;13.48;;;4.95;;
69030;SDS011;56083;48.774;8.942;2023-04-15T04:27:11;16.17;;;4.80;;
69030;SDS011;56083;48.774;8.942;2023-04-15T04:29:37;13.55;;;4.82;;
69030;SDS011;56083;48.774;8.942;2023-04-15T04:32:02;17.17;;;4.90;;
69030;SDS011;56083;48.774;8.942;2023-04-15T04:34:28;12.35;;;4.43;;
69030;SDS011;56083;48.774;8.942;2023-04-15T04:36:54;9.50;;;4.32;;
69030;SDS011;56083;48.774;8.942;2023-04-15T04:39:19;15.30;;;4.85;;
69030;SDS011;56083;48.774;8.942;2023-04-15T04:41:45;13.05;;;4.50;;
69030;SDS011;56083;48.774;8.942;2023-04-15T04:44:11;16.40;;;4.80;;
69030;SDS011;56083;48.774;8.942;2023-04-15T04:46:36;15.00;;;5.05;;
69030;SDS011;56083;48.774;8.942;2023-04-15T04:49:02;11.75;;;4.28;;
69030;SDS011;56083;48.774;8.942;2023-04-15T04:51:27;8.70;;;4.63;;
69030;SDS011;56083;48.774;8.942;2023-04-15T04:53:53;12.73;;;4.75;;
69030;SDS011;56083;48.774;8.942;2023-04-15T04:56:19;16.10;;;4.40;;
69030;SDS011;56083;48.774;8.942;2023-04-15T04:58:44;12.30;;;4.55;;
69030;SDS011;56083;48.774;8.942;2023-04-15T05:01:10;13.98;;;4.72;;
69030;SDS011;56083;48.774;8.942;2023-04-15T05:03:37;11.35;;;4.95;;
69030;SDS011;56083;48.774;8.942;2023-04-15T05:06:02;11.25;;;4.60;;
69030;SDS011;56083;48.774;8.942;2023-04-15T05:08:30;12.40;;;4.88;;
69030;SDS011;56083;48.774;8.942;2023-04-15T05:10:56;22.13;;;4.82;;
69030;SDS011;56083;48.774;8.942;2023-04-15T05:13:21;11.77;;;4.47;;
69030;SDS011;56083;48.774;8.942;2023-04-15T05:15:47;10.25;;;4.35;;
69030;SDS011;56083;48.774;8.942;2023-04-15T05:18:12;14.77;;;4.38;;
69030;SDS011;56083;48.774;8.942;2023-04-15T05:20:38;13.00;;;4.45;;
69030;SDS011;56083;48.774;8.942;2023-04-15T05:23:04;17.45;;;4.80;;
69030;SDS011;56083;48.774;8.942;2023-04-15T05:25:30;14.55;;;4.15;;
69030;SDS011;56083;48.774;8.942;2023-04-15T05:27:56;12.95;;;4.45;;
69030;SDS011;56083;48.774;8.942;2023-04-15T05:30:21;14.05;;;4.22;;
69030;SDS011;56083;48.774;8.942;2023-04-15T05:32:47;17.90;;;4.40;;
69030;SDS011;56083;48.774;8.942;2023-04-15T05:35:13;10.93;;;4.25;;
69030;SDS011;56083;48.774;8.942;2023-04-15T05:37:38;13.82;;;4.50;;
69030;SDS011;56083;48.774;8.942;2023-04-15T05:40:06;9.60;;;4.20;;
69030;SDS011;56083;48.774;8.942;2023-04-15T05:42:33;8.18;;;4.07;;
69030;SDS011;56083;48.774;8.942;2023-04-15T05:44:59;11.85;;;4.97;;
69030;SDS011;56083;48.774;8.942;2023-04-15T05:47:29;14.95;;;4.10;;
69030;SDS011;56083;48.774;8.942;2023-04-15T05:49:55;11.90;;;4.32;;
69030;SDS011;56083;48.774;8.942;2023-04-15T05:52:23;10.68;;;4.03;;
69030;SDS011;56083;48.774;8.942;2023-04-15T05:54:48;17.00;;;4.10;;
69030;SDS011;56083;48.774;8.942;2023-04-15T05:57:15;10.63;;;4.05;;
69030;SDS011;56083;48.774;8.942;2023-04-15T05:59:41;14.70;;;5.20;;
69030;SDS011;56083;48.774;8.942;2023-04-15T06:02:06;12.88;;;4.50;;
69030;SDS011;56083;48.774;8.942;2023-04-15T06:04:33;13.68;;;4.50;;
69030;SDS011;56083;48.774;8.942;2023-04-15T06:06:59;15.10;;;4.93;;
69030;SDS011;56083;48.774;8.942;2023-04-15T06:09:25;15.95;;;5.22;;
69030;SDS011;56083;48.774;8.942;2023-04-15T06:11:51;12.13;;;4.35;;
69030;SDS011;56083;48.774;8.942;2023-04-15T06:14:17;13.68;;;4.57;;
69030;SDS011;56083;48.774;8.942;2023-04-15T06:16:42;11.52;;;4.35;;
69030;SDS011;56083;48.774;8.942;2023-04-15T06:19:08;12.40;;;3.70;;
69030;SDS011;56083;48.774;8.942;2023-04-15T06:21:33;11.48;;;4.22;;
69030;SDS011;56083;48.774;8.942;2023-04-15T06:23:59;16.63;;;3.88;;
69030;SDS011;56083;48.774;8.942;2023-04-15T06:26:25;9.57;;;3.30;;
69030;SDS011;56083;48.774;8.942;2023-04-15T06:28:52;15.13;;;3.50;;
69030;SDS011;56083;48.774;8.942;2023-04-15T06:31:17;15.75;;;3.40;;
69030;SDS011;56083;48.774;8.942;2023-04-15T06:33:43;9.98;;;3.30;;
69030;SDS011;56083;48.774;8.942;2023-04-15T06:36:09;23.15;;;3.90;;
69030;SDS011;56083;48.774;8.942;2023-04-15T06:38:35;13.88;;;3.70;;
69030;SDS011;56083;48.774;8.942;2023-04-15T06:41:01;15.35;;;3.47;;
69030;SDS011;56083;48.774;8.942;2023-04-15T06:43:27;13.75;;;3.58;;
69030;SDS011;56083;48.774;8.942;2023-04-15T06:45:53;12.45;;;3.95;;
69030;SDS011;56083;48.774;8.942;2023-04-15T06:48:19;12.52;;;3.22;;
69030;SDS011;56083;48.774;8.942;2023-04-15T06:50:44;11.55;;;3.30;;
69030;SDS011;56083;48.774;8.942;2023-04-15T06:53:10;12.40;;;3.55;;
69030;SDS011;56083;48.774;8.942;2023-04-15T06:55:36;13.65;;;3.58;;
69030;SDS011;56083;48.774;8.942;2023-04-15T06:58:01;9.32;;;3.53;;
69030;SDS011;56083;48.774;8.942;2023-04-15T07:00:27;11.85;;;3.40;;
69030;SDS011;56083;48.774;8.942;2023-04-15T07:02:53;10.18;;;3.53;;
69030;SDS011;56083;48.774;8.942;2023-04-15T07:05:19;10.07;;;3.38;;
69030;SDS011;56083;48.774;8.942;2023-04-15T07:07:45;15.98;;;3.08;;
69030;SDS011;56083;48.774;8.942;2023-04-15T07:10:10;11.13;;;3.10;;
69030;SDS011;56083;48.774;8.942;2023-04-15T07:12:36;8.75;;;3.10;;
69030;SDS011;56083;48.774;8.942;2023-04-15T07:15:02;8.48;;;2.88;;
69030;SDS011;56083;48.774;8.942;2023-04-15T07:17:28;9.65;;;3.45;;
69030;SDS011;56083;48.774;8.942;2023-04-15T07:19:54;8.18;;;3.00;;
69030;SDS011;56083;48.774;8.942;2023-04-15T07:22:20;10.15;;;3.25;;
69030;SDS011;56083;48.774;8.942;2023-04-15T07:24:46;14.00;;;3.50;;
69030;SDS011;56083;48.774;8.942;2023-04-15T07:27:12;8.02;;;3.30;;
69030;SDS011;56083;48.774;8.942;2023-04-15T07:29:38;7.30;;;2.95;;
69030;SDS011;56083;48.774;8.942;2023-04-15T07:32:03;11.93;;;3.60;;
69030;SDS011;56083;48.774;8.942;2023-04-15T07:34:29;8.90;;;3.20;;
69030;SDS011;56083;48.774;8.942;2023-04-15T07:36:55;12.48;;;2.90;;
69030;SDS011;56083;48.774;8.942;2023-04-15T07:39:21;10.15;;;3.15;;
69030;SDS011;56083;48.774;8.942;2023-04-15T07:41:47;8.27;;;2.85;;
69030;SDS011;56083;48.774;8.942;2023-04-15T07:44:13;11.38;;;3.05;;
69030;SDS011;56083;48.774;8.942;2023-04-15T07:46:39;10.70;;;3.08;;
69030;SDS011;56083;48.774;8.942;2023-04-15T07:49:05;7.55;;;2.90;;
69030;SDS011;56083;48.774;8.942;2023-04-15T07:51:31;12.60;;;3.08;;
69030;SDS011;56083;48.774;8.942;2023-04-15T07:53:57;8.95;;;3.22;;
69030;SDS011;56083;48.774;8.942;2023-04-15T07:56:23;8.05;;;2.88;;
69030;SDS011;56083;48.774;8.942;2023-04-15T07:58:48;9.80;;;2.95;;
69030;SDS011;56083;48.774;8.942;2023-04-15T08:01:14;13.95;;;3.10;;
69030;SDS011;56083;48.774;8.942;2023-04-15T08:03:40;11.00;;;3.10;;
69030;SDS011;56083;48.774;8.942;2023-04-15T08:06:05;10.95;;;3.22;;
69030;SDS011;56083;48.774;8.942;2023-04-15T08:08:31;7.60;;;2.88;;
69030;SDS011;56083;48.774;8.942;2023-04-15T08:10:57;10.15;;;3.40;;
69030;SDS011;56083;48.774;8.942;2023-04-15T08:13:23;9.68;;;2.75;;
69030;SDS011;56083;48.774;8.942;2023-04-15T08:16:31;7.22;;;2.38;;
69030;SDS011;56083;48.774;8.942;2023-04-15T08:18:39;10.55;;;2.90;;
69030;SDS011;56083;48.774;8.942;2023-04-15T08:21:04;8.63;;;2.72;;
69030;SDS011;56083;48.774;8.942;2023-04-15T08:23:30;11.02;;;2.60;;
69030;SDS011;56083;48.774;8.942;2023-04-15T08:25:57;12.20;;;2.78;;
69030;SDS011;56083;48.774;8.942;2023-04-15T08:28:23;6.70;;;2.25;;
69030;SDS011;56083;48.774;8.942;2023-04-15T08:30:48;5.85;;;2.00;;
69030;SDS011;56083;48.774;8.942;2023-04-15T08:33:14;5.35;;;2.10;;
69030;SDS011;56083;48.774;8.942;2023-04-15T08:35:40;7.03;;;2.45;;
69030;SDS011;56083;48.774;8.942;2023-04-15T08:38:06;6.85;;;2.00;;
69030;SDS011;56083;48.774;8.942;2023-04-15T08:40:34;4.95;;;1.58;;
69030;SDS011;56083;48.774;8.942;2023-04-15T08:43:07;5.47;;;1.85;;
69030;SDS011;56083;48.774;8.942;2023-04-15T08:45:36;7.25;;;1.42;;
69030;SDS011;56083;48.774;8.942;2023-04-15T08:48:03;6.18;;;2.17;;
69030;SDS011;56083;48.774;8.942;2023-04-15T08:50:31;5.75;;;1.50;;
69030;SDS011;56083;48.774;8.942;2023-04-15T08:53:00;6.82;;;1.90;;
69030;SDS011;56083;48.774;8.942;2023-04-15T08:55:27;7.13;;;1.75;;
69030;SDS011;56083;48.774;8.942;2023-04-15T08:57:57;8.52;;;1.80;;
69030;SDS011;56083;48.774;8.942;2023-04-15T09:00:24;4.43;;;1.33;;
69030;SDS011;56083;48.774;8.942;2023-04-15T09:02:51;6.03;;;1.60;;
69030;SDS011;56083;48.774;8.942;2023-04-15T09:05:16;5.68;;;1.63;;
69030;SDS011;56083;48.774;8.942;2023-04-15T09:07:42;6.65;;;1.65;;
69030;SDS011;56083;48.774;8.942;2023-04-15T09:10:08;5.47;;;1.88;;
69030;SDS011;56083;48.774;8.942;2023-04-15T09:12:34;4.13;;;1.38;;
69030;SDS011;56083;48.774;8.942;2023-04-15T09:15:01;6.25;;;1.45;;
69030;SDS011;56083;48.774;8.942;2023-04-15T09:17:27;5.28;;;1.50;;
69030;SDS011;56083;48.774;8.942;2023-04-15T09:20:09;6.35;;;1.88;;
69030;SDS011;56083;48.774;8.942;2023-04-15T09:22:42;6.00;;;1.50;;
69030;SDS011;56083;48.774;8.942;2023-04-15T09:25:30;4.13;;;1.45;;
69030;SDS011;56083;48.774;8.942;2023-04-15T09:27:59;7.82;;;1.73;;
69030;SDS011;56083;48.774;8.942;2023-04-15T09:30:28;5.25;;;1.60;;
69030;SDS011;56083;48.774;8.942;2023-04-15T09:32:58;7.57;;;1.92;;
69030;SDS011;56083;48.774;8.942;2023-04-15T09:35:35;4.25;;;1.60;;
69030;SDS011;56083;48.774;8.942;2023-04-15T09:38:05;7.78;;;2.20;;
69030;SDS011;56083;48.774;8.942;2023-04-15T09:40:36;6.45;;;1.90;;
69030;SDS011;56083;48.774;8.942;2023-04-15T09:43:06;6.57;;;1.80;;
69030;SDS011;56083;48.774;8.942;2023-04-15T09:45:33;5.47;;;2.00;;
69030;SDS011;56083;48.774;8.942;2023-04-15T09:50:46;3.67;;;1.73;;
69030;SDS011;56083;48.774;8.942;2023-04-15T09:53:17;5.90;;;1.80;;
69030;SDS011;56083;48.774;8.942;2023-04-15T09:55:57;5.53;;;1.63;;
69030;SDS011;56083;48.774;8.942;2023-04-15T09:58:27;9.55;;;1.92;;
69030;SDS011;56083;48.774;8.942;2023-04-15T10:00:55;8.13;;;1.85;;
69030;SDS011;56083;48.774;8.942;2023-04-15T10:03:23;5.40;;;1.60;;
69030;SDS011;56083;48.774;8.942;2023-04-15T10:05:49;4.57;;;1.80;;
69030;SDS011;56083;48.774;8.942;2023-04-15T10:08:20;5.47;;;1.52;;
69030;SDS011;56083;48.774;8.942;2023-04-15T10:10:54;7.35;;;1.75;;
69030;SDS011;56083;48.774;8.942;2023-04-15T10:13:21;3.60;;;1.55;;
69030;SDS011;56083;48.774;8.942;2023-04-15T10:15:56;6.50;;;1.40;;
69030;SDS011;56083;48.774;8.942;2023-04-15T10:18:24;5.10;;;1.77;;
69030;SDS011;56083;48.774;8.942;2023-04-15T10:20:56;7.57;;;1.70;;
69030;SDS011;56083;48.774;8.942;2023-04-15T10:23:24;5.13;;;1.75;;
69030;SDS011;56083;48.774;8.942;2023-04-15T10:25:51;5.05;;;1.55;;
69030;SDS011;56083;48.774;8.942;2023-04-15T10:28:21;5.80;;;1.70;;
69030;SDS011;56083;48.774;8.942;2023-04-15T10:30:47;5.32;;;1.60;;
69030;SDS011;56083;48.774;8.942;2023-04-15T10:33:13;5.28;;;1.30;;
69030;SDS011;56083;48.774;8.942;2023-04-15T10:35:42;4.82;;;1.50;;
69030;SDS011;56083;48.774;8.942;2023-04-15T10:44:00;5.60;;;1.58;;
69030;SDS011;56083;48.774;8.942;2023-04-15T10:51:45;6.65;;;1.65;;
69030;SDS011;56083;48.774;8.942;2023-04-15T10:54:36;5.05;;;1.38;;
69030;SDS011;56083;48.774;8.942;2023-04-15T10:59:29;6.40;;;1.80;;
69030;SDS011;56083;48.774;8.942;2023-04-15T11:01:56;7.80;;;1.88;;
69030;SDS011;56083;48.774;8.942;2023-04-15T11:13:00;9.43;;;2.13;;
69030;SDS011;56083;48.774;8.942;2023-04-15T11:17:59;7.38;;;1.83;;
69030;SDS011;56083;48.774;8.942;2023-04-15T11:20:39;6.22;;;2.10;;
69030;SDS011;56083;48.774;8.942;2023-04-15T11:23:07;7.90;;;2.28;;
69030;SDS011;56083;48.774;8.942;2023-04-15T11:25:35;7.47;;;2.50;;
69030;SDS011;56083;48.774;8.942;2023-04-15T11:28:04;10.15;;;2.40;;
69030;SDS011;56083;48.774;8.942;2023-04-15T11:30:34;8.30;;;2.20;;
69030;SDS011;56083;48.774;8.942;2023-04-15T11:33:05;9.23;;;2.53;;
69030;SDS011;56083;48.774;8.942;2023-04-15T11:35:33;9.98;;;2.10;;
69030;SDS011;56083;48.774;8.942;2023-04-15T11:38:09;9.82;;;2.45;;
69030;SDS011;56083;48.774;8.942;2023-04-15T11:40:36;7.82;;;2.00;;
69030;SDS011;56083;48.774;8.942;2023-04-15T11:43:23;7.40;;;2.20;;
69030;SDS011;56083;48.774;8.942;2023-04-15T11:48:15;8.98;;;2.70;;
69030;SDS011;56083;48.774;8.942;2023-04-15T11:50:41;5.80;;;2.45;;
69030;SDS011;56083;48.774;8.942;2023-04-15T11:53:11;7.35;;;2.50;;
69030;SDS011;56083;48.774;8.942;2023-04-15T11:55:41;5.47;;;2.00;;
69030;SDS011;56083;48.774;8.942;2023-04-15T11:58:21;7.93;;;2.70;;
69030;SDS011;56083;48.774;8.942;2023-04-15T12:00:49;7.80;;;2.83;;
69030;SDS011;56083;48.774;8.942;2023-04-15T12:03:26;10.65;;;2.60;;
69030;SDS011;56083;48.774;8.942;2023-04-15T12:13:53;9.05;;;3.30;;
69030;SDS011;56083;48.774;8.942;2023-04-15T12:16:21;8.93;;;3.35;;
69030;SDS011;56083;48.774;8.942;2023-04-15T12:18:54;8.30;;;3.17;;
69030;SDS011;56083;48.774;8.942;2023-04-15T12:21:22;6.90;;;3.08;;
69030;SDS011;56083;48.774;8.942;2023-04-15T12:23:49;10.88;;;3.40;;
69030;SDS011;56083;48.774;8.942;2023-04-15T12:26:24;9.25;;;3.30;;
69030;SDS011;56083;48.774;8.942;2023-04-15T12:36:31;7.55;;;2.70;;
69030;SDS011;56083;48.774;8.942;2023-04-15T12:39:03;12.57;;;3.00;;
69030;SDS011;56083;48.774;8.942;2023-04-15T12:41:29;6.35;;;2.50;;
69030;SDS011;56083;48.774;8.942;2023-04-15T12:43:57;7.70;;;2.67;;
69030;SDS011;56083;48.774;8.942;2023-04-15T12:46:24;11.27;;;3.15;;
69030;SDS011;56083;48.774;8.942;2023-04-15T12:48:53;7.82;;;2.75;;
69030;SDS011;56083;48.774;8.942;2023-04-15T12:51:22;4.88;;;2.28;;
69030;SDS011;56083;48.774;8.942;2023-04-15T12:53:48;8.70;;;2.40;;
69030;SDS011;56083;48.774;8.942;2023-04-15T12:56:18;6.45;;;2.22;;
69030;SDS011;56083;48.774;8.942;2023-04-15T12:58:43;5.80;;;2.45;;
69030;SDS011;56083;48.774;8.942;2023-04-15T13:01:10;5.70;;;2.30;;
69030;SDS011;56083;48.774;8.942;2023-04-15T13:03:37;6.20;;;2.55;;
69030;SDS011;56083;48.774;8.942;2023-04-15T13:08:44;7.90;;;2.40;;
69030;SDS011;56083;48.774;8.942;2023-04-15T13:11:10;7.90;;;3.03;;
69030;SDS011;56083;48.774;8.942;2023-04-15T13:16:14;6.05;;;2.40;;
69030;SDS011;56083;48.774;8.942;2023-04-15T13:18:41;9.48;;;2.53;;
69030;SDS011;56083;48.774;8.942;2023-04-15T13:21:06;7.82;;;2.58;;
69030;SDS011;56083;48.774;8.942;2023-04-15T13:23:33;8.95;;;2.70;;
69030;SDS011;56083;48.774;8.942;2023-04-15T13:25:58;9.70;;;3.22;;
69030;SDS011;56083;48.774;8.942;2023-04-15T13:28:26;7.75;;;3.25;;
69030;SDS011;56083;48.774;8.942;2023-04-15T13:30:53;9.85;;;3.40;;
69030;SDS011;56083;48.774;8.942;2023-04-15T13:33:18;7.82;;;3.28;;
69030;SDS011;56083;48.774;8.942;2023-04-15T13:35:44;9.38;;;2.97;;
69030;SDS011;56083;48.774;8.942;2023-04-15T13:38:10;10.45;;;3.20;;
69030;SDS011;56083;48.774;8.942;2023-04-15T13:40:36;6.93;;;2.95;;
69030;SDS011;56083;48.774;8.942;2023-04-15T13:43:01;9.73;;;2.92;;
69030;SDS011;56083;48.774;8.942;2023-04-15T13:45:28;6.47;;;2.35;;
69030;SDS011;56083;48.774;8.942;2023-04-15T13:47:54;8.70;;;2.35;;
69030;SDS011;56083;48.774;8.942;2023-04-15T13:50:21;5.45;;;1.63;;
69030;SDS011;56083;48.774;8.942;2023-04-15T13:52:48;8.32;;;1.60;;
69030;SDS011;56083;48.774;8.942;2023-04-15T13:55:13;4.88;;;1.40;;
69030;SDS011;56083;48.774;8.942;2023-04-15T13:57:40;3.47;;;1.30;;
69030;SDS011;56083;48.774;8.942;2023-04-15T14:00:07;4.63;;;1.45;;
69030;SDS011;56083;48.774;8.942;2023-04-15T14:02:34;4.82;;;1.10;;
69030;SDS011;56083;48.774;8.942;2023-04-15T14:04:59;8.68;;;1.45;;
69030;SDS011;56083;48.774;8.942;2023-04-15T14:07:25;5.35;;;1.27;;
69030;SDS011;56083;48.774;8.942;2023-04-15T14:09:52;3.30;;;1.20;;
69030;SDS011;56083;48.774;8.942;2023-04-15T14:12:19;5.10;;;1.70;;
69030;SDS011;56083;48.774;8.942;2023-04-15T14:14:45;3.72;;;1.42;;
69030;SDS011;56083;48.774;8.942;2023-04-15T14:17:10;6.63;;;1.80;;
69030;SDS011;56083;48.774;8.942;2023-04-15T14:19:36;4.80;;;1.83;;
69030;SDS011;56083;48.774;8.942;2023-04-15T14:22:02;7.60;;;1.85;;
69030;SDS011;56083;48.774;8.942;2023-04-15T14:24:27;4.75;;;1.70;;
69030;SDS011;56083;48.774;8.942;2023-04-15T14:26:53;5.20;;;1.95;;
69030;SDS011;56083;48.774;8.942;2023-04-15T14:29:18;6.05;;;1.60;;
69030;SDS011;56083;48.774;8.942;2023-04-15T14:31:44;6.15;;;1.90;;
69030;SDS011;56083;48.774;8.942;2023-04-15T14:34:11;3.65;;;1.60;;
69030;SDS011;56083;48.774;8.942;2023-04-15T14:36:37;4.03;;;1.70;;
69030;SDS011;56083;48.774;8.942;2023-04-15T14:39:03;4.70;;;1.75;;
69030;SDS011;56083;48.774;8.942;2023-04-15T14:41:29;8.43;;;1.90;;
69030;SDS011;56083;48.774;8.942;2023-04-15T14:43:55;4.78;;;1.95;;
69030;SDS011;56083;48.774;8.942;2023-04-15T14:46:21;4.65;;;1.63;;
69030;SDS011;56083;48.774;8.942;2023-04-15T14:48:47;4.85;;;1.73;;
69030;SDS011;56083;48.774;8.942;2023-04-15T14:51:13;3.83;;;1.85;;
69030;SDS011;56083;48.774;8.942;2023-04-15T14:53:43;6.18;;;1.77;;
69030;SDS011;56083;48.774;8.942;2023-04-15T14:56:28;6.80;;;2.50;;
69030;SDS011;56083;48.774;8.942;2023-04-15T14:58:54;7.25;;;2.15;;
69030;SDS011;56083;48.774;8.942;2023-04-15T15:01:20;7.88;;;2.42;;
69030;SDS011;56083;48.774;8.942;2023-04-15T15:03:45;4.72;;;2.30;;
69030;SDS011;56083;48.774;8.942;2023-04-15T15:06:11;9.10;;;2.72;;
69030;SDS011;56083;48.774;8.942;2023-04-15T15:08:37;4.78;;;2.42;;
69030;SDS011;56083;48.774;8.942;2023-04-15T15:11:03;6.82;;;2.40;;
69030;SDS011;56083;48.774;8.942;2023-04-15T15:13:30;4.80;;;2.38;;
69030;SDS011;56083;48.774;8.942;2023-04-15T15:15:56;5.10;;;1.80;;
69030;SDS011;56083;48.774;8.942;2023-04-15T15:18:22;4.97;;;2.15;;
69030;SDS011;56083;48.774;8.942;2023-04-15T15:20:49;6.05;;;2.58;;
69030;SDS011;56083;48.774;8.942;2023-04-15T15:23:15;5.22;;;2.58;;
69030;SDS011;56083;48.774;8.942;2023-04-15T15:25:40;8.55;;;2.65;;
69030;SDS011;56083;48.774;8.942;2023-04-15T15:28:07;6.63;;;2.03;;
69030;SDS011;56083;48.774;8.942;2023-04-15T15:30:33;5.82;;;2.40;;